Mostly Cloudy Current Weather (METAR) For Cancun Airport

All times on the weather descriptions are local

Observed at 03:47 - (47 mins ago)

Mostly Cloudy

24°C

Mostly Cloudy
Clouds: Broken Clouds at 8,000ft, Broken Clouds at 30,000ft
Wind: 020° at 05 knots
Visibility: 7 statute miles
QNH:
Dew Point: 18°C
Runway in Use: Likely Runway 30

Sunrise Today: 05:41
Sunset Today: 18:02

Forecast Weather (TAF) For Cancun Airport

Issued at 18:00 - (1 day 13 hrs ago)


Runway in Use: Unable to determine, wind is clam

Forecast valid until 18:00 on Monday

METAR/TAF RAW METAR / TAF

MMUN 290947Z 02005KT 7SM BKN080 BKN300 24/18 A3012 RMK 8/078

Weather Widget

Put weather from any of our airports on your website with our weather widget.

Find Another Search

Airport Search


Please Wait Please Wait - Loading
Close
Close

Login

Username:

Password:

Remember Me:

Remember me on this computer

Forgotten your password? Get a reset password sent to your registered e-mail address

Close

User Private Message

Subject:

Message: